Aérodrome :
LOGIN :

S'inscrire | Disclaimer

   EN    FR    IT 

 










Légende :    VFR   VFR Marginal   IFR   IFR Intensif   IFR Très Intensif
Visi : 
Plafond : 
>= 8 km
>= 3000ft
5 à 8 km
1000 à 3000 ft
1500m à 5 km
500 à 1000 ft
800 à 1500m
200 à 500 ft
< 800m
< 200 ft
Symboles :   Orages  Brouillard  Fortes neiges  Fortes précipitations  Vent > 20 kt
SIGMETs :   Divers  Orages  Givrage  Turbulence  Onde Orograph.  Cendres Volcan.






- Altitude de l'aérodrome : 788 ft
- Code IATA : DCM


LFCK - Castres-Mazamet

DERNIER METAR :
  • 121300Z AUTO 31011KT 9999 -RA BKN020/// BKN032/// BKN049/// ///TCU 10/08 Q1010 TEMPO 31015G25KT 4500 SHRA BKN006 SCT022TCU

METARs EXPIRÉS :
  • 121230Z AUTO 30014KT 9999 BKN013/// BKN026/// BKN031/// ///TCU 10/08 Q1011 TEMPO 31015G25KT 4500 SHRA BKN006 SCT022TCU
  • 121200Z AUTO 30014KT 9999 SCT013/// BKN020/// BKN031/// ///TCU 10/08 Q1011 TEMPO 31015G25KT 4500 SHRA BKN006 SCT022TCU
  • 121130Z AUTO 30010KT 9999 BKN013/// BKN019/// BKN033/// ///TCU 10/08 Q1012 TEMPO 31015G25KT 4500 SHRA BKN006 SCT022TCU
  • 121100Z AUTO 29012KT 9999 BKN014/// OVC019/// ///CB 09/07 Q1012 TEMPO 31015G25KT 4500 SHRA BKN006 SCT022TCU
  • 121030Z AUTO 31011KT 9999 BKN014 BKN025 BKN035 09/07 Q1013 TEMPO 31015G25KT 4500 SHRA BKN006 SCT022TCU

TAF TAF LFCK
Valide du 12 à 12h jusqu'au 12 à 21h UTC


121100Z 1212/1221 30010KT 9999 BKN014
TEMPO 1212/1221 4500 SHRA BKN006 SCT022TCU
PROB40
TEMPO 1212/1216 31015G25KT



MET'MAP, la Météo Aéronautique d'un coup d'oeil ! - Copyright ORBIFLY Décembre 2007 - Disclaimer

ORBIFLY MET'MAP TEAM :

Programmation & Développement : Alexandra Zaïnal
Conception & Développement : Baudouin d'Aumeries
Co-Programmation & Développement : Marc-Olivier Méhu
Soutien technique & logistique : Manuel Goepfert

Contact : metmap@orbifly.com




SOURCES & CREDITS :

   NOAA